sensor_id;sensor_type;location;lat;lon;timestamp;pressure;altitude;pressure_sealevel;temperature;humidity
68141;BME280;54941;52.220;104.306;2023-04-10T00:01:10;96056.34;;;0.41;53.00
68141;BME280;54941;52.220;104.306;2023-04-10T00:03:38;96055.94;;;-0.41;52.40
68141;BME280;54941;52.220;104.306;2023-04-10T00:06:05;96065.19;;;-0.50;50.83
68141;BME280;54941;52.220;104.306;2023-04-10T00:08:32;96077.41;;;0.16;47.58
68141;BME280;54941;52.220;104.306;2023-04-10T00:10:58;96085.16;;;0.58;46.77
68141;BME280;54941;52.220;104.306;2023-04-10T00:13:25;96088.59;;;1.25;47.04
68141;BME280;54941;52.220;104.306;2023-04-10T00:15:51;96093.81;;;0.47;44.18
68141;BME280;54941;52.220;104.306;2023-04-10T00:18:18;96106.56;;;-0.41;42.95
68141;BME280;54941;52.220;104.306;2023-04-10T00:20:46;96092.56;;;0.26;41.55
68141;BME280;54941;52.220;104.306;2023-04-10T00:23:12;96104.03;;;0.64;42.42
68141;BME280;54941;52.220;104.306;2023-04-10T00:25:39;96111.09;;;0.09;40.95
68141;BME280;54941;52.220;104.306;2023-04-10T00:28:05;96110.34;;;-0.72;39.87
68141;BME280;54941;52.220;104.306;2023-04-10T00:30:31;96089.53;;;-0.13;40.08
68141;BME280;54941;52.220;104.306;2023-04-10T00:32:58;96118.72;;;-0.72;39.47
68141;BME280;54941;52.220;104.306;2023-04-10T00:35:24;96138.66;;;-0.41;37.36
68141;BME280;54941;52.220;104.306;2023-04-10T00:37:52;96139.97;;;-0.02;37.75
68141;BME280;54941;52.220;104.306;2023-04-10T00:40:19;96137.25;;;-0.26;38.49
68141;BME280;54941;52.220;104.306;2023-04-10T00:42:45;96138.53;;;0.13;36.96
68141;BME280;54941;52.220;104.306;2023-04-10T00:45:11;96142.13;;;-0.07;37.30
68141;BME280;54941;52.220;104.306;2023-04-10T00:47:38;96157.34;;;0.28;35.87
68141;BME280;54941;52.220;104.306;2023-04-10T00:50:05;96171.13;;;-0.37;38.22
68141;BME280;54941;52.220;104.306;2023-04-10T00:52:31;96171.09;;;0.43;35.97
68141;BME280;54941;52.220;104.306;2023-04-10T00:54:59;96166.66;;;-0.25;33.99
68141;BME280;54941;52.220;104.306;2023-04-10T00:57:26;96181.00;;;0.02;34.64
68141;BME280;54941;52.220;104.306;2023-04-10T00:59:53;96176.06;;;-0.90;36.82
68141;BME280;54941;52.220;104.306;2023-04-10T01:02:19;96176.34;;;0.50;34.80
68141;BME280;54941;52.220;104.306;2023-04-10T01:04:46;96167.44;;;-0.70;37.33
68141;BME280;54941;52.220;104.306;2023-04-10T01:07:18;96191.72;;;0.31;34.37
68141;BME280;54941;52.220;104.306;2023-04-10T01:09:50;96172.91;;;-1.02;36.64
68141;BME280;54941;52.220;104.306;2023-04-10T01:12:30;96180.28;;;1.64;33.43
68141;BME280;54941;52.220;104.306;2023-04-10T01:15:05;96194.22;;;2.26;31.26
68141;BME280;54941;52.220;104.306;2023-04-10T01:17:38;96196.75;;;2.02;31.46
68141;BME280;54941;52.220;104.306;2023-04-10T01:20:09;96207.72;;;2.99;30.61
68141;BME280;54941;52.220;104.306;2023-04-10T01:22:45;96214.75;;;3.52;29.70
68141;BME280;54941;52.220;104.306;2023-04-10T01:28:23;96207.41;;;4.19;27.49
68141;BME280;54941;52.220;104.306;2023-04-10T01:30:58;96209.50;;;3.84;28.52
68141;BME280;54941;52.220;104.306;2023-04-10T01:33:30;96216.03;;;3.48;27.32
68141;BME280;54941;52.220;104.306;2023-04-10T01:36:01;96227.06;;;3.79;27.85
68141;BME280;54941;52.220;104.306;2023-04-10T01:38:29;96225.06;;;3.98;28.50
68141;BME280;54941;52.220;104.306;2023-04-10T01:40:57;96222.03;;;4.48;27.66
68141;BME280;54941;52.220;104.306;2023-04-10T01:43:25;96225.56;;;5.36;26.17
68141;BME280;54941;52.220;104.306;2023-04-10T01:45:52;96225.75;;;5.05;26.60
68141;BME280;54941;52.220;104.306;2023-04-10T01:48:20;96223.38;;;4.81;25.86
68141;BME280;54941;52.220;104.306;2023-04-10T01:50:47;96236.03;;;5.12;26.10
68141;BME280;54941;52.220;104.306;2023-04-10T01:53:15;96233.88;;;4.40;25.95
68141;BME280;54941;52.220;104.306;2023-04-10T01:55:43;96223.69;;;6.03;25.54
68141;BME280;54941;52.220;104.306;2023-04-10T01:58:09;96220.34;;;6.60;24.92
68141;BME280;54941;52.220;104.306;2023-04-10T02:00:39;96243.47;;;7.15;23.58
68141;BME280;54941;52.220;104.306;2023-04-10T02:03:06;96244.91;;;7.59;23.23
68141;BME280;54941;52.220;104.306;2023-04-10T02:05:43;96244.13;;;7.58;23.21
68141;BME280;54941;52.220;104.306;2023-04-10T02:08:14;96262.97;;;7.44;22.65
68141;BME280;54941;52.220;104.306;2023-04-10T02:10:46;96247.72;;;8.92;22.97
68141;BME280;54941;52.220;104.306;2023-04-10T02:13:19;96244.59;;;8.96;23.30
68141;BME280;54941;52.220;104.306;2023-04-10T02:15:46;96255.84;;;7.74;25.10
68141;BME280;54941;52.220;104.306;2023-04-10T02:18:16;96260.84;;;6.71;24.29
68141;BME280;54941;52.220;104.306;2023-04-10T02:20:45;96255.88;;;6.48;24.13
68141;BME280;54941;52.220;104.306;2023-04-10T02:23:14;96266.03;;;4.27;26.90
68141;BME280;54941;52.220;104.306;2023-04-10T02:25:41;96278.31;;;6.89;24.88
68141;BME280;54941;52.220;104.306;2023-04-10T02:28:07;96274.03;;;7.45;24.83
68141;BME280;54941;52.220;104.306;2023-04-10T02:30:34;96289.75;;;6.14;23.87
68141;BME280;54941;52.220;104.306;2023-04-10T02:33:00;96291.41;;;7.21;24.82
68141;BME280;54941;52.220;104.306;2023-04-10T02:35:27;96289.50;;;7.58;23.21
68141;BME280;54941;52.220;104.306;2023-04-10T02:37:55;96279.44;;;7.28;24.29
68141;BME280;54941;52.220;104.306;2023-04-10T02:40:21;96268.44;;;7.07;24.55
68141;BME280;54941;52.220;104.306;2023-04-10T02:42:48;96279.59;;;5.48;25.46
68141;BME280;54941;52.220;104.306;2023-04-10T02:45:14;96288.44;;;5.74;23.89
68141;BME280;54941;52.220;104.306;2023-04-10T02:47:41;96283.28;;;6.33;25.27
68141;BME280;54941;52.220;104.306;2023-04-10T02:50:07;96286.63;;;6.91;24.76
68141;BME280;54941;52.220;104.306;2023-04-10T02:52:34;96289.91;;;7.96;23.56
68141;BME280;54941;52.220;104.306;2023-04-10T02:55:02;96292.63;;;8.89;22.93
68141;BME280;54941;52.220;104.306;2023-04-10T02:57:29;96292.84;;;6.60;24.46
68141;BME280;54941;52.220;104.306;2023-04-10T02:59:55;96296.38;;;9.52;22.13
68141;BME280;54941;52.220;104.306;2023-04-10T03:02:22;96296.16;;;8.75;22.80
68141;BME280;54941;52.220;104.306;2023-04-10T03:04:48;96281.44;;;10.89;20.97
68141;BME280;54941;52.220;104.306;2023-04-10T03:07:14;96287.16;;;10.15;21.42
68141;BME280;54941;52.220;104.306;2023-04-10T03:09:41;96287.09;;;10.29;21.20
68141;BME280;54941;52.220;104.306;2023-04-10T03:12:09;96287.09;;;9.51;21.45
68141;BME280;54941;52.220;104.306;2023-04-10T03:14:35;96275.22;;;9.11;20.66
68141;BME280;54941;52.220;104.306;2023-04-10T03:17:01;96302.13;;;7.04;23.10
68141;BME280;54941;52.220;104.306;2023-04-10T03:19:28;96293.97;;;5.49;26.25
68141;BME280;54941;52.220;104.306;2023-04-10T03:21:54;96281.00;;;5.21;24.75
68141;BME280;54941;52.220;104.306;2023-04-10T03:24:21;96276.31;;;6.42;24.56
68141;BME280;54941;52.220;104.306;2023-04-10T03:26:47;96284.59;;;7.97;24.44
68141;BME280;54941;52.220;104.306;2023-04-10T03:29:15;96284.22;;;5.81;23.91
68141;BME280;54941;52.220;104.306;2023-04-10T03:31:41;96289.59;;;8.59;24.76
68141;BME280;54941;52.220;104.306;2023-04-10T03:34:07;96291.50;;;5.03;25.96
68141;BME280;54941;52.220;104.306;2023-04-10T03:36:34;96282.16;;;6.21;24.81
68141;BME280;54941;52.220;104.306;2023-04-10T03:39:00;96286.16;;;6.09;25.38
68141;BME280;54941;52.220;104.306;2023-04-10T03:41:27;96292.44;;;4.87;25.10
68141;BME280;54941;52.220;104.306;2023-04-10T03:43:53;96285.53;;;6.57;25.79
68141;BME280;54941;52.220;104.306;2023-04-10T03:46:21;96291.56;;;7.41;23.98
68141;BME280;54941;52.220;104.306;2023-04-10T03:48:47;96284.94;;;7.53;24.04
68141;BME280;54941;52.220;104.306;2023-04-10T03:51:13;96280.66;;;7.32;27.14
68141;BME280;54941;52.220;104.306;2023-04-10T03:53:40;96281.31;;;6.50;26.02
68141;BME280;54941;52.220;104.306;2023-04-10T03:56:07;96282.78;;;7.29;26.58
68141;BME280;54941;52.220;104.306;2023-04-10T03:58:33;96267.81;;;5.61;27.54
68141;BME280;54941;52.220;104.306;2023-04-10T04:01:00;96284.22;;;5.81;27.05
68141;BME280;54941;52.220;104.306;2023-04-10T04:03:28;96278.66;;;4.20;29.40
68141;BME280;54941;52.220;104.306;2023-04-10T04:05:54;96274.41;;;5.56;31.93
68141;BME280;54941;52.220;104.306;2023-04-10T04:08:20;96284.78;;;4.03;29.86
68141;BME280;54941;52.220;104.306;2023-04-10T04:10:47;96280.88;;;3.84;31.35
68141;BME280;54941;52.220;104.306;2023-04-10T04:13:13;96281.72;;;6.96;28.95
68141;BME280;54941;52.220;104.306;2023-04-10T04:15:40;96277.63;;;5.87;28.83
68141;BME280;54941;52.220;104.306;2023-04-10T04:18:06;96265.28;;;3.87;31.09
68141;BME280;54941;52.220;104.306;2023-04-10T04:20:34;96260.25;;;6.54;29.89
68141;BME280;54941;52.220;104.306;2023-04-10T04:23:00;96269.94;;;5.43;31.08
68141;BME280;54941;52.220;104.306;2023-04-10T04:25:27;96265.94;;;5.40;30.13
68141;BME280;54941;52.220;104.306;2023-04-10T04:27:53;96260.41;;;5.66;31.55
68141;BME280;54941;52.220;104.306;2023-04-10T04:30:19;96252.41;;;4.65;30.79
68141;BME280;54941;52.220;104.306;2023-04-10T04:32:46;96249.06;;;5.54;31.75
68141;BME280;54941;52.220;104.306;2023-04-10T04:35:12;96254.97;;;4.65;30.30
68141;BME280;54941;52.220;104.306;2023-04-10T04:37:40;96252.28;;;6.07;32.73
68141;BME280;54941;52.220;104.306;2023-04-10T04:40:07;96249.72;;;4.81;33.19
68141;BME280;54941;52.220;104.306;2023-04-10T04:42:33;96253.56;;;4.55;32.93
68141;BME280;54941;52.220;104.306;2023-04-10T04:45:00;96249.00;;;3.41;33.93
68141;BME280;54941;52.220;104.306;2023-04-10T04:47:26;96230.44;;;5.60;34.40
68141;BME280;54941;52.220;104.306;2023-04-10T04:49:53;96233.41;;;5.20;36.60
68141;BME280;54941;52.220;104.306;2023-04-10T04:52:19;96228.53;;;4.96;33.46
68141;BME280;54941;52.220;104.306;2023-04-10T04:54:47;96230.75;;;7.01;31.75
68141;BME280;54941;52.220;104.306;2023-04-10T04:57:13;96228.44;;;6.84;30.63
68141;BME280;54941;52.220;104.306;2023-04-10T04:59:40;96213.59;;;7.29;28.34
68141;BME280;54941;52.220;104.306;2023-04-10T05:02:06;96219.97;;;4.88;29.59
68141;BME280;54941;52.220;104.306;2023-04-10T05:04:32;96192.44;;;6.93;27.05
68141;BME280;54941;52.220;104.306;2023-04-10T05:06:59;96208.84;;;6.49;27.66
68141;BME280;54941;52.220;104.306;2023-04-10T05:09:25;96202.66;;;5.86;29.41
68141;BME280;54941;52.220;104.306;2023-04-10T05:11:53;96214.00;;;4.96;28.78
68141;BME280;54941;52.220;104.306;2023-04-10T05:14:19;96213.56;;;5.07;29.62
68141;BME280;54941;52.220;104.306;2023-04-10T05:16:46;96201.16;;;3.99;31.42
68141;BME280;54941;52.220;104.306;2023-04-10T05:19:12;96200.69;;;4.86;30.01
68141;BME280;54941;52.220;104.306;2023-04-10T05:21:41;96194.72;;;4.94;29.48
68141;BME280;54941;52.220;104.306;2023-04-10T05:24:10;96192.03;;;3.42;31.38
68141;BME280;54941;52.220;104.306;2023-04-10T05:26:36;96175.81;;;3.66;31.03
68141;BME280;54941;52.220;104.306;2023-04-10T05:29:04;96167.53;;;5.15;30.68
68141;BME280;54941;52.220;104.306;2023-04-10T05:31:30;96180.56;;;5.20;29.58
68141;BME280;54941;52.220;104.306;2023-04-10T05:33:57;96179.00;;;4.22;31.82
68141;BME280;54941;52.220;104.306;2023-04-10T05:36:23;96182.63;;;2.88;32.20
68141;BME280;54941;52.220;104.306;2023-04-10T05:38:49;96177.59;;;3.97;31.62
68141;BME280;54941;52.220;104.306;2023-04-10T05:41:16;96192.97;;;3.41;32.25
68141;BME280;54941;52.220;104.306;2023-04-10T05:43:42;96171.09;;;4.17;33.75
68141;BME280;54941;52.220;104.306;2023-04-10T05:46:12;96176.00;;;4.64;32.38
68141;BME280;54941;52.220;104.306;2023-04-10T05:48:39;96170.81;;;4.34;31.61
68141;BME280;54941;52.220;104.306;2023-04-10T05:51:06;96177.22;;;3.77;32.15
68141;BME280;54941;52.220;104.306;2023-04-10T05:53:32;96174.03;;;4.66;30.41
68141;BME280;54941;52.220;104.306;2023-04-10T05:55:58;96178.53;;;5.01;30.00
68141;BME280;54941;52.220;104.306;2023-04-10T05:58:25;96177.38;;;3.36;31.70
68141;BME280;54941;52.220;104.306;2023-04-10T06:00:51;96190.06;;;4.14;31.44
68141;BME280;54941;52.220;104.306;2023-04-10T06:03:19;96181.09;;;3.65;31.36
68141;BME280;54941;52.220;104.306;2023-04-10T06:05:46;96157.94;;;4.51;31.94
68141;BME280;54941;52.220;104.306;2023-04-10T06:08:12;96166.78;;;3.95;32.60
68141;BME280;54941;52.220;104.306;2023-04-10T06:10:39;96165.84;;;3.18;31.41
68141;BME280;54941;52.220;104.306;2023-04-10T06:13:05;96169.66;;;3.61;31.87
68141;BME280;54941;52.220;104.306;2023-04-10T06:15:32;96163.41;;;4.25;30.89
68141;BME280;54941;52.220;104.306;2023-04-10T06:17:58;96173.03;;;3.53;30.75
68141;BME280;54941;52.220;104.306;2023-04-10T06:20:26;96167.34;;;3.43;32.03
68141;BME280;54941;52.220;104.306;2023-04-10T06:22:52;96175.25;;;3.01;32.53
68141;BME280;54941;52.220;104.306;2023-04-10T06:25:19;96169.31;;;3.64;32.26
68141;BME280;54941;52.220;104.306;2023-04-10T06:27:45;96181.06;;;2.47;31.60
68141;BME280;54941;52.220;104.306;2023-04-10T06:30:12;96174.78;;;3.53;31.43
68141;BME280;54941;52.220;104.306;2023-04-10T06:32:38;96158.72;;;3.44;32.81
68141;BME280;54941;52.220;104.306;2023-04-10T06:35:05;96163.44;;;3.16;31.89
68141;BME280;54941;52.220;104.306;2023-04-10T06:37:33;96159.75;;;3.66;31.91
68141;BME280;54941;52.220;104.306;2023-04-10T06:40:02;96149.84;;;4.02;32.39
68141;BME280;54941;52.220;104.306;2023-04-10T06:42:29;96156.13;;;3.60;30.61
68141;BME280;54941;52.220;104.306;2023-04-10T06:44:56;96160.50;;;3.43;32.36
68141;BME280;54941;52.220;104.306;2023-04-10T06:47:22;96153.75;;;3.12;30.98
68141;BME280;54941;52.220;104.306;2023-04-10T06:49:48;96147.97;;;2.71;32.52
68141;BME280;54941;52.220;104.306;2023-04-10T06:52:15;96159.25;;;2.84;32.34
68141;BME280;54941;52.220;104.306;2023-04-10T06:54:43;96151.44;;;3.72;31.30
68141;BME280;54941;52.220;104.306;2023-04-10T06:57:09;96157.94;;;4.28;29.91
68141;BME280;54941;52.220;104.306;2023-04-10T06:59:36;96147.69;;;4.13;30.05
68141;BME280;54941;52.220;104.306;2023-04-10T07:02:02;96144.06;;;4.82;30.22
68141;BME280;54941;52.220;104.306;2023-04-10T07:04:29;96141.53;;;5.26;30.62
68141;BME280;54941;52.220;104.306;2023-04-10T07:06:56;96134.13;;;5.31;28.98
68141;BME280;54941;52.220;104.306;2023-04-10T07:09:24;96123.19;;;5.37;29.38
68141;BME280;54941;52.220;104.306;2023-04-10T07:11:52;96120.94;;;5.28;27.01
68141;BME280;54941;52.220;104.306;2023-04-10T07:14:19;96134.19;;;4.27;29.17
68141;BME280;54941;52.220;104.306;2023-04-10T07:16:45;96116.16;;;4.96;27.21
68141;BME280;54941;52.220;104.306;2023-04-10T07:19:11;96119.91;;;4.56;30.02
68141;BME280;54941;52.220;104.306;2023-04-10T07:21:38;96119.38;;;3.77;28.97
68141;BME280;54941;52.220;104.306;2023-04-10T07:24:04;96115.72;;;5.07;30.05
68141;BME280;54941;52.220;104.306;2023-04-10T07:26:31;96101.09;;;5.66;29.28
68141;BME280;54941;52.220;104.306;2023-04-10T07:28:59;96114.41;;;5.76;27.86
68141;BME280;54941;52.220;104.306;2023-04-10T07:31:25;96113.88;;;5.66;26.93
68141;BME280;54941;52.220;104.306;2023-04-10T07:33:51;96108.03;;;5.36;28.51
68141;BME280;54941;52.220;104.306;2023-04-10T07:36:18;96121.34;;;5.46;27.37
68141;BME280;54941;52.220;104.306;2023-04-10T07:38:44;96111.69;;;4.83;27.20
68141;BME280;54941;52.220;104.306;2023-04-10T07:41:10;96111.56;;;5.35;25.65
68141;BME280;54941;52.220;104.306;2023-04-10T07:43:37;96117.19;;;4.57;26.44
68141;BME280;54941;52.220;104.306;2023-04-10T07:46:05;96109.63;;;5.37;26.05
68141;BME280;54941;52.220;104.306;2023-04-10T07:48:32;96115.41;;;6.17;26.34
68141;BME280;54941;52.220;104.306;2023-04-10T07:50:58;96116.47;;;6.51;25.92
68141;BME280;54941;52.220;104.306;2023-04-10T07:53:25;96113.72;;;5.17;27.00
68141;BME280;54941;52.220;104.306;2023-04-10T07:55:51;96108.75;;;5.30;30.00
68141;BME280;54941;52.220;104.306;2023-04-10T07:58:17;96108.81;;;4.49;29.50
68141;BME280;54941;52.220;104.306;2023-04-10T08:00:44;96108.34;;;5.12;30.54
68141;BME280;54941;52.220;104.306;2023-04-10T08:03:13;96103.22;;;5.62;29.44
68141;BME280;54941;52.220;104.306;2023-04-10T08:05:40;96109.25;;;4.52;30.10
68141;BME280;54941;52.220;104.306;2023-04-10T08:08:06;96116.66;;;4.47;30.40
68141;BME280;54941;52.220;104.306;2023-04-10T08:10:35;96111.28;;;4.57;30.44
68141;BME280;54941;52.220;104.306;2023-04-10T08:13:01;96109.03;;;4.24;28.63
68141;BME280;54941;52.220;104.306;2023-04-10T08:15:28;96110.38;;;4.87;28.50
68141;BME280;54941;52.220;104.306;2023-04-10T08:17:54;96111.25;;;4.79;28.94
68141;BME280;54941;52.220;104.306;2023-04-10T08:20:22;96111.94;;;4.88;28.65
68141;BME280;54941;52.220;104.306;2023-04-10T08:22:49;96110.59;;;4.77;28.62
68141;BME280;54941;52.220;104.306;2023-04-10T08:25:15;96098.69;;;4.55;27.70
68141;BME280;54941;52.220;104.306;2023-04-10T08:27:41;96086.72;;;4.41;26.77
68141;BME280;54941;52.220;104.306;2023-04-10T08:30:08;96090.44;;;3.70;25.92
68141;BME280;54941;52.220;104.306;2023-04-10T08:32:35;96110.84;;;4.16;25.99
68141;BME280;54941;52.220;104.306;2023-04-10T08:35:04;96096.88;;;4.26;28.02
68141;BME280;54941;52.220;104.306;2023-04-10T08:37:32;96097.66;;;4.50;27.89
68141;BME280;54941;52.220;104.306;2023-04-10T08:39:58;96096.16;;;4.55;27.53
68141;BME280;54941;52.220;104.306;2023-04-10T08:42:25;96094.59;;;3.10;27.12
68141;BME280;54941;52.220;104.306;2023-04-10T08:44:51;96106.22;;;3.43;27.01
68141;BME280;54941;52.220;104.306;2023-04-10T08:47:19;96104.41;;;3.21;27.49
68141;BME280;54941;52.220;104.306;2023-04-10T08:49:48;96111.47;;;3.41;28.84
68141;BME280;54941;52.220;104.306;2023-04-10T08:52:21;96103.31;;;3.07;28.00
68141;BME280;54941;52.220;104.306;2023-04-10T08:54:52;96105.03;;;3.15;28.56
68141;BME280;54941;52.220;104.306;2023-04-10T08:57:19;96119.97;;;2.71;27.87
68141;BME280;54941;52.220;104.306;2023-04-10T08:59:46;96123.63;;;3.31;29.35
68141;BME280;54941;52.220;104.306;2023-04-10T09:02:13;96129.28;;;3.03;28.26
68141;BME280;54941;52.220;104.306;2023-04-10T09:04:39;96117.78;;;3.54;29.68
68141;BME280;54941;52.220;104.306;2023-04-10T09:07:09;96131.75;;;2.64;27.92
68141;BME280;54941;52.220;104.306;2023-04-10T09:09:35;96136.34;;;2.84;27.55
68141;BME280;54941;52.220;104.306;2023-04-10T09:12:03;96128.59;;;3.17;28.48
68141;BME280;54941;52.220;104.306;2023-04-10T09:14:30;96129.66;;;3.30;27.76
68141;BME280;54941;52.220;104.306;2023-04-10T09:17:12;96140.66;;;2.76;28.36
68141;BME280;54941;52.220;104.306;2023-04-10T09:19:38;96137.06;;;3.48;28.30
68141;BME280;54941;52.220;104.306;2023-04-10T09:22:05;96128.03;;;3.37;28.33
68141;BME280;54941;52.220;104.306;2023-04-10T09:24:34;96135.34;;;3.40;29.65
68141;BME280;54941;52.220;104.306;2023-04-10T09:27:03;96150.50;;;2.63;27.42
68141;BME280;54941;52.220;104.306;2023-04-10T09:29:41;96160.66;;;2.87;29.96
68141;BME280;54941;52.220;104.306;2023-04-10T09:32:08;96160.06;;;2.53;30.94
68141;BME280;54941;52.220;104.306;2023-04-10T09:34:37;96160.88;;;3.32;32.79
68141;BME280;54941;52.220;104.306;2023-04-10T09:37:15;96164.34;;;2.52;34.90
68141;BME280;54941;52.220;104.306;2023-04-10T09:39:42;96173.72;;;2.84;35.16
68141;BME280;54941;52.220;104.306;2023-04-10T09:42:10;96173.97;;;3.05;33.76
68141;BME280;54941;52.220;104.306;2023-04-10T09:44:37;96178.66;;;2.69;34.92
68141;BME280;54941;52.220;104.306;2023-04-10T09:47:15;96173.84;;;2.90;34.56
68141;BME280;54941;52.220;104.306;2023-04-10T09:49:44;96182.63;;;2.88;36.21
68141;BME280;54941;52.220;104.306;2023-04-10T09:52:17;96193.59;;;2.64;36.60
68141;BME280;54941;52.220;104.306;2023-04-10T09:54:44;96201.53;;;2.85;36.13
68141;BME280;54941;52.220;104.306;2023-04-10T09:57:13;96196.78;;;2.58;36.62
68141;BME280;54941;52.220;104.306;2023-04-10T09:59:42;96205.22;;;2.51;36.38
68141;BME280;54941;52.220;104.306;2023-04-10T10:02:13;96212.38;;;2.71;36.52
68141;BME280;54941;52.220;104.306;2023-04-10T10:04:41;96206.97;;;2.50;36.04
68141;BME280;54941;52.220;104.306;2023-04-10T10:07:09;96196.44;;;2.37;36.73
68141;BME280;54941;52.220;104.306;2023-04-10T10:09:36;96206.63;;;2.85;35.45
68141;BME280;54941;52.220;104.306;2023-04-10T10:12:03;96200.38;;;3.20;35.44
68141;BME280;54941;52.220;104.306;2023-04-10T10:14:33;96218.25;;;2.80;34.90
68141;BME280;54941;52.220;104.306;2023-04-10T10:17:04;96210.59;;;2.56;35.20
68141;BME280;54941;52.220;104.306;2023-04-10T10:19:38;96216.44;;;2.08;35.16
68141;BME280;54941;52.220;104.306;2023-04-10T10:22:06;96210.16;;;2.76;34.47
68141;BME280;54941;52.220;104.306;2023-04-10T10:24:35;96217.44;;;2.96;34.98
68141;BME280;54941;52.220;104.306;2023-04-10T10:27:04;96213.47;;;2.69;36.02
68141;BME280;54941;52.220;104.306;2023-04-10T10:29:36;96227.78;;;3.02;34.99
68141;BME280;54941;52.220;104.306;2023-04-10T10:32:05;96224.41;;;2.13;35.03
68141;BME280;54941;52.220;104.306;2023-04-10T10:34:31;96222.00;;;2.11;35.11
68141;BME280;54941;52.220;104.306;2023-04-10T10:36:58;96228.75;;;2.36;34.83
68141;BME280;54941;52.220;104.306;2023-04-10T10:39:31;96228.88;;;2.35;35.06
68141;BME280;54941;52.220;104.306;2023-04-10T10:42:05;96231.59;;;2.58;34.95
68141;BME280;54941;52.220;104.306;2023-04-10T10:44:41;96233.31;;;2.25;34.99
68141;BME280;54941;52.220;104.306;2023-04-10T10:47:15;96229.53;;;2.29;35.19
68141;BME280;54941;52.220;104.306;2023-04-10T10:49:53;96235.25;;;2.55;35.16
68141;BME280;54941;52.220;104.306;2023-04-10T10:52:37;96240.63;;;2.20;35.25
68141;BME280;54941;52.220;104.306;2023-04-10T10:55:30;96237.72;;;2.15;34.34
68141;BME280;54941;52.220;104.306;2023-04-10T10:57:57;96247.94;;;2.31;36.00
68141;BME280;54941;52.220;104.306;2023-04-10T11:03:25;96249.69;;;2.30;34.73
68141;BME280;54941;52.220;104.306;2023-04-10T11:05:53;96257.94;;;2.16;34.96
68141;BME280;54941;52.220;104.306;2023-04-10T11:08:37;96266.44;;;1.91;35.22
68141;BME280;54941;52.220;104.306;2023-04-10T11:11:04;96266.06;;;1.78;35.88
68141;BME280;54941;52.220;104.306;2023-04-10T11:13:32;96265.28;;;1.77;35.69
68141;BME280;54941;52.220;104.306;2023-04-10T11:16:01;96272.84;;;2.11;35.32
68141;BME280;54941;52.220;104.306;2023-04-10T11:19:02;96269.91;;;2.56;35.83
68141;BME280;54941;52.220;104.306;2023-04-10T11:21:29;96277.94;;;2.19;35.82
68141;BME280;54941;52.220;104.306;2023-04-10T11:24:02;96273.72;;;2.36;36.73
68141;BME280;54941;52.220;104.306;2023-04-10T11:26:36;96278.16;;;2.34;35.59
68141;BME280;54941;52.220;104.306;2023-04-10T11:29:03;96279.75;;;2.35;35.74
68141;BME280;54941;52.220;104.306;2023-04-10T11:31:32;96275.28;;;2.29;35.43
68141;BME280;54941;52.220;104.306;2023-04-10T11:34:03;96279.16;;;2.57;35.61
68141;BME280;54941;52.220;104.306;2023-04-10T11:36:30;96280.78;;;2.08;36.52
68141;BME280;54941;52.220;104.306;2023-04-10T11:38:57;96280.88;;;2.49;35.40
68141;BME280;54941;52.220;104.306;2023-04-10T11:41:28;96284.81;;;2.27;36.86
68141;BME280;54941;52.220;104.306;2023-04-10T11:43:55;96284.22;;;2.49;37.59
68141;BME280;54941;52.220;104.306;2023-04-10T11:46:21;96279.88;;;2.17;37.34
68141;BME280;54941;52.220;104.306;2023-04-10T11:48:53;96287.09;;;2.54;36.06
68141;BME280;54941;52.220;104.306;2023-04-10T11:51:21;96284.84;;;2.43;36.23
68141;BME280;54941;52.220;104.306;2023-04-10T11:53:47;96286.28;;;2.54;36.33
68141;BME280;54941;52.220;104.306;2023-04-10T11:56:18;96287.28;;;2.11;36.87
68141;BME280;54941;52.220;104.306;2023-04-10T11:58:44;96281.47;;;2.26;38.63
68141;BME280;54941;52.220;104.306;2023-04-10T12:01:12;96283.09;;;1.93;36.73
68141;BME280;54941;52.220;104.306;2023-04-10T12:03:40;96284.47;;;2.22;36.97
68141;BME280;54941;52.220;104.306;2023-04-10T12:06:10;96289.13;;;1.84;38.00
68141;BME280;54941;52.220;104.306;2023-04-10T12:08:38;96292.03;;;1.98;38.23
68141;BME280;54941;52.220;104.306;2023-04-10T12:11:05;96287.97;;;2.21;38.03
68141;BME280;54941;52.220;104.306;2023-04-10T12:13:32;96294.38;;;2.41;37.19
68141;BME280;54941;52.220;104.306;2023-04-10T12:15:59;96293.25;;;2.35;37.97
68141;BME280;54941;52.220;104.306;2023-04-10T12:18:27;96301.69;;;2.44;37.24
68141;BME280;54941;52.220;104.306;2023-04-10T12:20:54;96298.84;;;2.55;37.35
68141;BME280;54941;52.220;104.306;2023-04-10T12:23:24;96301.69;;;2.36;38.51
68141;BME280;54941;52.220;104.306;2023-04-10T12:25:52;96299.44;;;2.33;37.68
68141;BME280;54941;52.220;104.306;2023-04-10T12:28:19;96301.84;;;1.84;37.14
68141;BME280;54941;52.220;104.306;2023-04-10T12:30:47;96306.81;;;2.02;37.48
68141;BME280;54941;52.220;104.306;2023-04-10T12:33:18;96305.75;;;2.13;38.21
68141;BME280;54941;52.220;104.306;2023-04-10T12:35:45;96307.19;;;2.23;39.23
68141;BME280;54941;52.220;104.306;2023-04-10T12:38:11;96308.34;;;2.29;37.82
68141;BME280;54941;52.220;104.306;2023-04-10T12:40:56;96309.53;;;2.09;38.87
68141;BME280;54941;52.220;104.306;2023-04-10T12:43:34;96313.88;;;1.82;40.97
68141;BME280;54941;52.220;104.306;2023-04-10T12:46:01;96315.44;;;1.75;40.58
68141;BME280;54941;52.220;104.306;2023-04-10T12:48:28;96318.03;;;1.58;41.32
68141;BME280;54941;52.220;104.306;2023-04-10T12:50:54;96313.06;;;1.48;40.31
68141;BME280;54941;52.220;104.306;2023-04-10T12:53:21;96322.06;;;1.17;41.23
68141;BME280;54941;52.220;104.306;2023-04-10T12:56:03;96321.31;;;1.24;41.21
68141;BME280;54941;52.220;104.306;2023-04-10T12:58:30;96320.41;;;1.08;40.64
68141;BME280;54941;52.220;104.306;2023-04-10T13:00:57;96317.00;;;0.81;40.88